sensor_id;sensor_type;location;lat;lon;timestamp;pressure;altitude;pressure_sealevel;temperature;humidity
41596;BME280;27283;52.504;13.358;2023-08-20T00:00:24;101396.03;;;26.93;63.44
41596;BME280;27283;52.504;13.358;2023-08-20T00:03:16;101406.22;;;26.87;63.59
41596;BME280;27283;52.504;13.358;2023-08-20T00:05:52;101401.22;;;26.84;64.76
41596;BME280;27283;52.504;13.358;2023-08-20T00:08:26;101402.88;;;26.85;64.76
41596;BME280;27283;52.504;13.358;2023-08-20T00:10:59;101408.00;;;26.77;65.13
41596;BME280;27283;52.504;13.358;2023-08-20T00:13:32;101404.16;;;26.78;64.74
41596;BME280;27283;52.504;13.358;2023-08-20T00:16:05;101404.91;;;26.68;65.37
41596;BME280;27283;52.504;13.358;2023-08-20T00:18:57;101410.31;;;26.63;65.33
41596;BME280;27283;52.504;13.358;2023-08-20T00:21:32;101408.31;;;26.58;65.89
41596;BME280;27283;52.504;13.358;2023-08-20T00:24:06;101412.94;;;26.52;66.17
41596;BME280;27283;52.504;13.358;2023-08-20T00:27:14;101424.31;;;26.56;65.26
41596;BME280;27283;52.504;13.358;2023-08-20T00:29:49;101417.06;;;26.50;65.38
41596;BME280;27283;52.504;13.358;2023-08-20T00:32:22;101420.59;;;26.45;65.68
41596;BME280;27283;52.504;13.358;2023-08-20T00:34:54;101421.94;;;26.43;65.90
41596;BME280;27283;52.504;13.358;2023-08-20T00:37:30;101418.34;;;26.42;65.66
41596;BME280;27283;52.504;13.358;2023-08-20T00:40:04;101423.53;;;26.39;65.92
41596;BME280;27283;52.504;13.358;2023-08-20T00:42:38;101426.22;;;26.33;66.23
41596;BME280;27283;52.504;13.358;2023-08-20T00:45:11;101417.31;;;26.26;67.23
41596;BME280;27283;52.504;13.358;2023-08-20T00:47:43;101425.56;;;26.26;66.90
41596;BME280;27283;52.504;13.358;2023-08-20T00:50:16;101421.72;;;26.27;66.02
41596;BME280;27283;52.504;13.358;2023-08-20T00:52:51;101423.13;;;26.08;69.33
41596;BME280;27283;52.504;13.358;2023-08-20T00:55:24;101421.84;;;26.15;67.57
41596;BME280;27283;52.504;13.358;2023-08-20T00:57:56;101439.16;;;26.11;68.73
41596;BME280;27283;52.504;13.358;2023-08-20T01:00:29;101447.31;;;25.89;70.37
41596;BME280;27283;52.504;13.358;2023-08-20T01:03:02;101440.56;;;26.13;69.13
41596;BME280;27283;52.504;13.358;2023-08-20T01:05:41;101442.38;;;26.25;69.18
41596;BME280;27283;52.504;13.358;2023-08-20T01:08:29;101437.75;;;26.30;70.27
41596;BME280;27283;52.504;13.358;2023-08-20T01:11:06;101449.06;;;25.95;73.67
41596;BME280;27283;52.504;13.358;2023-08-20T01:13:44;101444.91;;;26.09;72.76
41596;BME280;27283;52.504;13.358;2023-08-20T01:16:27;101453.09;;;25.70;75.33
41596;BME280;27283;52.504;13.358;2023-08-20T01:19:03;101452.34;;;25.75;75.86
41596;BME280;27283;52.504;13.358;2023-08-20T01:21:43;101451.94;;;26.00;75.09
41596;BME280;27283;52.504;13.358;2023-08-20T01:24:27;101453.75;;;25.77;76.76
41596;BME280;27283;52.504;13.358;2023-08-20T01:27:15;101459.16;;;25.72;77.37
41596;BME280;27283;52.504;13.358;2023-08-20T01:29:54;101457.84;;;25.75;77.11
41596;BME280;27283;52.504;13.358;2023-08-20T01:32:28;101455.47;;;25.33;79.77
41596;BME280;27283;52.504;13.358;2023-08-20T01:35:00;101469.38;;;25.26;80.74
41596;BME280;27283;52.504;13.358;2023-08-20T01:38:09;101465.19;;;25.23;81.26
41596;BME280;27283;52.504;13.358;2023-08-20T01:40:41;101464.59;;;25.50;79.94
41596;BME280;27283;52.504;13.358;2023-08-20T01:43:14;101460.50;;;25.53;79.51
41596;BME280;27283;52.504;13.358;2023-08-20T01:45:52;101467.94;;;25.23;81.31
41596;BME280;27283;52.504;13.358;2023-08-20T01:48:26;101467.56;;;25.32;81.30
41596;BME280;27283;52.504;13.358;2023-08-20T01:50:58;101477.00;;;25.36;80.92
41596;BME280;27283;52.504;13.358;2023-08-20T01:53:36;101478.94;;;25.23;81.48
41596;BME280;27283;52.504;13.358;2023-08-20T01:56:11;101477.06;;;25.12;82.73
41596;BME280;27283;52.504;13.358;2023-08-20T01:58:45;101477.41;;;24.87;84.41
41596;BME280;27283;52.504;13.358;2023-08-20T02:01:28;101486.22;;;25.01;83.69
41596;BME280;27283;52.504;13.358;2023-08-20T02:04:03;101485.41;;;25.00;83.83
41596;BME280;27283;52.504;13.358;2023-08-20T02:06:43;101483.19;;;24.50;86.02
41596;BME280;27283;52.504;13.358;2023-08-20T02:09:16;101477.47;;;24.28;88.48
41596;BME280;27283;52.504;13.358;2023-08-20T02:11:48;101490.16;;;24.29;88.54
41596;BME280;27283;52.504;13.358;2023-08-20T02:14:20;101488.84;;;24.55;87.10
41596;BME280;27283;52.504;13.358;2023-08-20T02:16:55;101494.03;;;24.80;85.62
41596;BME280;27283;52.504;13.358;2023-08-20T02:19:27;101492.94;;;24.93;85.04
41596;BME280;27283;52.504;13.358;2023-08-20T02:22:00;101494.69;;;24.70;86.23
41596;BME280;27283;52.504;13.358;2023-08-20T02:24:32;101497.44;;;24.70;85.89
41596;BME280;27283;52.504;13.358;2023-08-20T02:27:04;101491.28;;;24.80;85.09
41596;BME280;27283;52.504;13.358;2023-08-20T02:29:36;101500.31;;;24.52;87.44
41596;BME280;27283;52.504;13.358;2023-08-20T02:32:11;101513.31;;;24.68;86.37
41596;BME280;27283;52.504;13.358;2023-08-20T02:34:49;101510.47;;;24.63;86.53
41596;BME280;27283;52.504;13.358;2023-08-20T02:37:24;101503.97;;;24.57;87.02
41596;BME280;27283;52.504;13.358;2023-08-20T02:40:13;101515.47;;;24.78;85.51
41596;BME280;27283;52.504;13.358;2023-08-20T02:42:44;101506.97;;;24.44;87.60
41596;BME280;27283;52.504;13.358;2023-08-20T02:45:17;101514.16;;;24.57;86.63
41596;BME280;27283;52.504;13.358;2023-08-20T02:47:51;101510.22;;;24.41;87.10
41596;BME280;27283;52.504;13.358;2023-08-20T02:50:23;101506.78;;;24.22;88.11
41596;BME280;27283;52.504;13.358;2023-08-20T02:52:55;101521.56;;;24.21;88.95
41596;BME280;27283;52.504;13.358;2023-08-20T02:55:32;101527.66;;;24.23;88.51
41596;BME280;27283;52.504;13.358;2023-08-20T02:58:06;101513.09;;;24.34;87.47
41596;BME280;27283;52.504;13.358;2023-08-20T03:00:41;101509.53;;;24.22;88.00
41596;BME280;27283;52.504;13.358;2023-08-20T03:03:16;101521.94;;;24.01;89.83
41596;BME280;27283;52.504;13.358;2023-08-20T03:05:49;101525.66;;;24.06;89.50
41596;BME280;27283;52.504;13.358;2023-08-20T03:08:24;101530.00;;;23.84;91.49
41596;BME280;27283;52.504;13.358;2023-08-20T03:10:57;101519.66;;;23.56;92.78
41596;BME280;27283;52.504;13.358;2023-08-20T03:13:29;101537.81;;;23.68;92.54
41596;BME280;27283;52.504;13.358;2023-08-20T03:16:02;101537.84;;;23.80;91.60
41596;BME280;27283;52.504;13.358;2023-08-20T03:18:37;101542.00;;;24.01;90.46
41596;BME280;27283;52.504;13.358;2023-08-20T03:21:09;101538.41;;;24.01;90.04
41596;BME280;27283;52.504;13.358;2023-08-20T03:23:42;101546.09;;;23.80;91.58
41596;BME280;27283;52.504;13.358;2023-08-20T03:26:14;101548.34;;;23.41;94.80
41596;BME280;27283;52.504;13.358;2023-08-20T03:28:46;101549.66;;;23.81;91.91
41596;BME280;27283;52.504;13.358;2023-08-20T03:31:19;101559.91;;;24.04;90.44
41596;BME280;27283;52.504;13.358;2023-08-20T03:33:59;101546.97;;;23.93;90.73
41596;BME280;27283;52.504;13.358;2023-08-20T03:36:31;101544.34;;;23.56;93.58
41596;BME280;27283;52.504;13.358;2023-08-20T03:39:04;101556.09;;;23.63;93.20
41596;BME280;27283;52.504;13.358;2023-08-20T03:41:38;101541.97;;;23.29;96.81
41596;BME280;27283;52.504;13.358;2023-08-20T03:44:13;101537.13;;;23.12;97.76
41596;BME280;27283;52.504;13.358;2023-08-20T03:46:45;101543.03;;;23.28;97.20
41596;BME280;27283;52.504;13.358;2023-08-20T03:49:21;101546.81;;;23.15;97.96
41596;BME280;27283;52.504;13.358;2023-08-20T03:51:53;101548.94;;;23.13;98.22
41596;BME280;27283;52.504;13.358;2023-08-20T03:54:25;101549.38;;;23.10;99.13
41596;BME280;27283;52.504;13.358;2023-08-20T03:56:57;101554.09;;;23.03;99.37
41596;BME280;27283;52.504;13.358;2023-08-20T03:59:30;101552.53;;;23.13;98.99
41596;BME280;27283;52.504;13.358;2023-08-20T04:02:03;101563.63;;;22.81;100.00
41596;BME280;27283;52.504;13.358;2023-08-20T04:04:38;101564.38;;;23.07;100.00
41596;BME280;27283;52.504;13.358;2023-08-20T04:07:13;101572.38;;;23.27;98.46
41596;BME280;27283;52.504;13.358;2023-08-20T04:09:47;101566.16;;;23.20;98.23
41596;BME280;27283;52.504;13.358;2023-08-20T04:12:27;101566.97;;;23.02;99.52
41596;BME280;27283;52.504;13.358;2023-08-20T04:14:59;101557.75;;;22.78;100.00
41596;BME280;27283;52.504;13.358;2023-08-20T04:17:31;101559.75;;;22.89;100.00
41596;BME280;27283;52.504;13.358;2023-08-20T04:20:07;101569.84;;;22.70;100.00
41596;BME280;27283;52.504;13.358;2023-08-20T04:22:40;101561.41;;;22.90;100.00
41596;BME280;27283;52.504;13.358;2023-08-20T04:25:12;101568.50;;;22.98;100.00
41596;BME280;27283;52.504;13.358;2023-08-20T04:27:45;101573.28;;;22.84;100.00
41596;BME280;27283;52.504;13.358;2023-08-20T04:30:16;101576.03;;;22.84;100.00
41596;BME280;27283;52.504;13.358;2023-08-20T04:32:49;101578.63;;;22.97;100.00
41596;BME280;27283;52.504;13.358;2023-08-20T04:38:18;101576.72;;;22.79;100.00
41596;BME280;27283;52.504;13.358;2023-08-20T04:40:50;101584.66;;;22.88;100.00
41596;BME280;27283;52.504;13.358;2023-08-20T04:43:23;101585.16;;;22.78;100.00
41596;BME280;27283;52.504;13.358;2023-08-20T04:45:54;101581.38;;;22.97;100.00
41596;BME280;27283;52.504;13.358;2023-08-20T04:48:27;101592.53;;;23.21;100.00
41596;BME280;27283;52.504;13.358;2023-08-20T04:51:01;101595.88;;;23.42;99.38
41596;BME280;27283;52.504;13.358;2023-08-20T04:53:33;101591.28;;;23.35;99.63
41596;BME280;27283;52.504;13.358;2023-08-20T04:56:05;101581.97;;;23.36;98.65
41596;BME280;27283;52.504;13.358;2023-08-20T04:58:38;101589.97;;;22.82;100.00
41596;BME280;27283;52.504;13.358;2023-08-20T05:01:09;101587.31;;;22.76;100.00
41596;BME280;27283;52.504;13.358;2023-08-20T05:03:45;101593.94;;;22.68;100.00
41596;BME280;27283;52.504;13.358;2023-08-20T05:06:22;101596.66;;;22.68;100.00
41596;BME280;27283;52.504;13.358;2023-08-20T05:08:54;101610.38;;;22.87;100.00
41596;BME280;27283;52.504;13.358;2023-08-20T05:11:26;101607.38;;;23.13;100.00
41596;BME280;27283;52.504;13.358;2023-08-20T05:14:00;101601.34;;;23.23;100.00
41596;BME280;27283;52.504;13.358;2023-08-20T05:16:32;101599.84;;;23.27;100.00
41596;BME280;27283;52.504;13.358;2023-08-20T05:19:29;101603.19;;;23.11;100.00
41596;BME280;27283;52.504;13.358;2023-08-20T05:22:29;101603.94;;;22.99;100.00
41596;BME280;27283;52.504;13.358;2023-08-20T05:25:26;101606.75;;;23.11;100.00
41596;BME280;27283;52.504;13.358;2023-08-20T05:28:02;101613.00;;;23.18;100.00
41596;BME280;27283;52.504;13.358;2023-08-20T05:30:35;101621.25;;;23.18;100.00
41596;BME280;27283;52.504;13.358;2023-08-20T05:33:09;101623.16;;;23.67;99.30
41596;BME280;27283;52.504;13.358;2023-08-20T05:35:45;101635.78;;;23.56;98.25
41596;BME280;27283;52.504;13.358;2023-08-20T05:38:21;101639.78;;;23.72;97.64
41596;BME280;27283;52.504;13.358;2023-08-20T05:40:53;101638.69;;;23.43;98.96
41596;BME280;27283;52.504;13.358;2023-08-20T05:43:26;101638.53;;;23.38;99.46
41596;BME280;27283;52.504;13.358;2023-08-20T05:45:58;101644.03;;;23.38;99.94
41596;BME280;27283;52.504;13.358;2023-08-20T05:48:33;101651.22;;;23.39;98.83
41596;BME280;27283;52.504;13.358;2023-08-20T05:51:09;101650.72;;;23.23;100.00
41596;BME280;27283;52.504;13.358;2023-08-20T05:53:44;101652.50;;;23.36;100.00
41596;BME280;27283;52.504;13.358;2023-08-20T05:56:16;101652.81;;;23.77;97.38
41596;BME280;27283;52.504;13.358;2023-08-20T05:58:49;101645.22;;;23.60;97.60
41596;BME280;27283;52.504;13.358;2023-08-20T06:01:21;101635.41;;;23.52;98.13
41596;BME280;27283;52.504;13.358;2023-08-20T06:03:58;101637.91;;;23.54;98.91
41596;BME280;27283;52.504;13.358;2023-08-20T06:06:36;101650.44;;;23.80;95.47
41596;BME280;27283;52.504;13.358;2023-08-20T06:09:13;101661.41;;;23.31;98.35
41596;BME280;27283;52.504;13.358;2023-08-20T06:11:50;101654.19;;;23.86;95.13
41596;BME280;27283;52.504;13.358;2023-08-20T06:14:29;101643.47;;;23.66;95.46
41596;BME280;27283;52.504;13.358;2023-08-20T06:17:01;101642.34;;;23.36;97.07
41596;BME280;27283;52.504;13.358;2023-08-20T06:19:34;101653.16;;;23.50;97.15
41596;BME280;27283;52.504;13.358;2023-08-20T06:22:07;101661.13;;;23.70;95.83
41596;BME280;27283;52.504;13.358;2023-08-20T06:24:44;101676.03;;;23.44;97.20
41596;BME280;27283;52.504;13.358;2023-08-20T06:27:18;101676.13;;;23.37;98.05
41596;BME280;27283;52.504;13.358;2023-08-20T06:29:51;101667.97;;;23.30;98.04
41596;BME280;27283;52.504;13.358;2023-08-20T06:32:24;101676.66;;;23.46;96.79
41596;BME280;27283;52.504;13.358;2023-08-20T06:34:57;101675.50;;;23.53;97.02
41596;BME280;27283;52.504;13.358;2023-08-20T06:37:29;101681.75;;;23.61;96.45
41596;BME280;27283;52.504;13.358;2023-08-20T06:40:06;101680.66;;;23.80;93.98
41596;BME280;27283;52.504;13.358;2023-08-20T06:42:50;101688.31;;;23.41;96.22
41596;BME280;27283;52.504;13.358;2023-08-20T06:45:27;101678.75;;;23.62;95.79
41596;BME280;27283;52.504;13.358;2023-08-20T06:47:59;101679.00;;;23.61;95.54
41596;BME280;27283;52.504;13.358;2023-08-20T06:50:31;101690.22;;;23.59;94.71
41596;BME280;27283;52.504;13.358;2023-08-20T06:53:06;101689.13;;;23.79;93.67
41596;BME280;27283;52.504;13.358;2023-08-20T06:55:41;101698.97;;;23.68;94.30
41596;BME280;27283;52.504;13.358;2023-08-20T06:58:14;101696.53;;;23.78;94.49
41596;BME280;27283;52.504;13.358;2023-08-20T07:00:46;101697.28;;;23.67;93.99
41596;BME280;27283;52.504;13.358;2023-08-20T07:03:19;101704.53;;;23.80;92.99
41596;BME280;27283;52.504;13.358;2023-08-20T07:05:51;101721.22;;;23.97;91.44
41596;BME280;27283;52.504;13.358;2023-08-20T07:08:23;101728.53;;;24.03;92.41
41596;BME280;27283;52.504;13.358;2023-08-20T07:10:58;101729.00;;;24.00;89.38
41596;BME280;27283;52.504;13.358;2023-08-20T07:13:33;101725.84;;;23.66;91.88
41596;BME280;27283;52.504;13.358;2023-08-20T07:16:07;101727.72;;;23.84;92.22
41596;BME280;27283;52.504;13.358;2023-08-20T07:18:42;101718.81;;;23.88;90.39
41596;BME280;27283;52.504;13.358;2023-08-20T07:21:16;101723.47;;;24.18;89.88
41596;BME280;27283;52.504;13.358;2023-08-20T07:23:49;101730.25;;;23.67;89.79
41596;BME280;27283;52.504;13.358;2023-08-20T07:26:32;101735.78;;;24.28;88.19
41596;BME280;27283;52.504;13.358;2023-08-20T07:29:04;101741.44;;;24.02;87.83
41596;BME280;27283;52.504;13.358;2023-08-20T07:31:36;101745.72;;;24.29;86.83
41596;BME280;27283;52.504;13.358;2023-08-20T07:34:08;101736.41;;;24.30;87.18
41596;BME280;27283;52.504;13.358;2023-08-20T07:36:41;101745.44;;;23.88;88.12
41596;BME280;27283;52.504;13.358;2023-08-20T07:39:13;101731.00;;;24.23;86.13
41596;BME280;27283;52.504;13.358;2023-08-20T07:41:49;101734.03;;;24.33;85.56
41596;BME280;27283;52.504;13.358;2023-08-20T07:44:21;101735.97;;;24.75;82.71
41596;BME280;27283;52.504;13.358;2023-08-20T07:46:54;101747.06;;;24.38;84.79
41596;BME280;27283;52.504;13.358;2023-08-20T07:49:26;101754.66;;;23.94;88.69
41596;BME280;27283;52.504;13.358;2023-08-20T07:51:59;101749.00;;;23.51;90.77
41596;BME280;27283;52.504;13.358;2023-08-20T07:54:33;101751.22;;;23.43;92.39
41596;BME280;27283;52.504;13.358;2023-08-20T07:57:10;101748.53;;;24.10;88.42
41596;BME280;27283;52.504;13.358;2023-08-20T07:59:42;101756.28;;;24.74;84.73
41596;BME280;27283;52.504;13.358;2023-08-20T08:02:16;101752.63;;;25.16;81.58
41596;BME280;27283;52.504;13.358;2023-08-20T08:04:54;101755.00;;;25.00;81.51
41596;BME280;27283;52.504;13.358;2023-08-20T08:07:27;101754.03;;;25.18;79.32
41596;BME280;27283;52.504;13.358;2023-08-20T08:10:03;101754.28;;;25.40;77.95
41596;BME280;27283;52.504;13.358;2023-08-20T08:12:38;101749.56;;;25.76;75.72
41596;BME280;27283;52.504;13.358;2023-08-20T08:15:10;101756.31;;;25.57;76.00
41596;BME280;27283;52.504;13.358;2023-08-20T08:17:43;101749.16;;;25.44;77.03
41596;BME280;27283;52.504;13.358;2023-08-20T08:20:16;101754.44;;;26.27;73.93
41596;BME280;27283;52.504;13.358;2023-08-20T08:22:48;101766.56;;;26.26;73.69
41596;BME280;27283;52.504;13.358;2023-08-20T08:25:20;101760.72;;;27.02;69.53
41596;BME280;27283;52.504;13.358;2023-08-20T08:28:08;101758.88;;;27.08;68.18
41596;BME280;27283;52.504;13.358;2023-08-20T08:30:44;101759.66;;;27.25;67.92
41596;BME280;27283;52.504;13.358;2023-08-20T08:33:16;101752.50;;;28.07;64.24
41596;BME280;27283;52.504;13.358;2023-08-20T08:36:15;101748.75;;;28.46;62.35
41596;BME280;27283;52.504;13.358;2023-08-20T08:39:16;101765.88;;;27.49;63.70
41596;BME280;27283;52.504;13.358;2023-08-20T08:41:50;101762.88;;;27.34;65.08
41596;BME280;27283;52.504;13.358;2023-08-20T08:44:26;101754.38;;;28.02;62.68
41596;BME280;27283;52.504;13.358;2023-08-20T08:47:01;101758.09;;;29.05;58.03
41596;BME280;27283;52.504;13.358;2023-08-20T08:49:36;101752.53;;;28.99;57.87
41596;BME280;27283;52.504;13.358;2023-08-20T08:52:25;101748.34;;;28.97;58.17
41596;BME280;27283;52.504;13.358;2023-08-20T08:55:05;101750.31;;;29.39;57.85
41596;BME280;27283;52.504;13.358;2023-08-20T08:57:43;101758.84;;;29.80;54.42
41596;BME280;27283;52.504;13.358;2023-08-20T09:00:18;101754.56;;;29.14;55.72
41596;BME280;27283;52.504;13.358;2023-08-20T09:02:53;101740.94;;;29.03;56.39
41596;BME280;27283;52.504;13.358;2023-08-20T09:05:26;101745.81;;;28.31;58.52
41596;BME280;27283;52.504;13.358;2023-08-20T09:07:58;101751.31;;;28.85;58.09
41596;BME280;27283;52.504;13.358;2023-08-20T09:10:31;101744.59;;;29.56;54.95
41596;BME280;27283;52.504;13.358;2023-08-20T09:13:05;101752.97;;;29.77;52.94
41596;BME280;27283;52.504;13.358;2023-08-20T09:16:14;101750.66;;;29.53;52.69
41596;BME280;27283;52.504;13.358;2023-08-20T09:18:46;101750.44;;;29.60;53.21
41596;BME280;27283;52.504;13.358;2023-08-20T09:21:33;101742.09;;;30.44;49.60
41596;BME280;27283;52.504;13.358;2023-08-20T09:24:39;101735.97;;;29.47;52.12
41596;BME280;27283;52.504;13.358;2023-08-20T09:27:19;101736.56;;;30.74;50.50
41596;BME280;27283;52.504;13.358;2023-08-20T09:30:23;101734.91;;;30.58;49.29
41596;BME280;27283;52.504;13.358;2023-08-20T09:33:27;101727.63;;;30.26;50.10
41596;BME280;27283;52.504;13.358;2023-08-20T09:36:33;101727.09;;;30.86;51.58
41596;BME280;27283;52.504;13.358;2023-08-20T09:39:25;101715.34;;;32.01;46.60
41596;BME280;27283;52.504;13.358;2023-08-20T09:42:12;101723.97;;;31.99;45.65
41596;BME280;27283;52.504;13.358;2023-08-20T09:44:46;101731.97;;;31.61;45.08
41596;BME280;27283;52.504;13.358;2023-08-20T09:47:21;101737.91;;;31.18;46.17
41596;BME280;27283;52.504;13.358;2023-08-20T09:49:58;101748.13;;;32.04;44.64
41596;BME280;27283;52.504;13.358;2023-08-20T09:52:38;101737.38;;;30.75;44.62
41596;BME280;27283;52.504;13.358;2023-08-20T09:55:15;101737.31;;;31.42;45.26
41596;BME280;27283;52.504;13.358;2023-08-20T09:58:10;101743.00;;;32.26;43.71
41596;BME280;27283;52.504;13.358;2023-08-20T10:01:37;101740.84;;;32.18;42.72
41596;BME280;27283;52.504;13.358;2023-08-20T10:04:47;101748.56;;;31.76;43.66
41596;BME280;27283;52.504;13.358;2023-08-20T10:07:43;101748.34;;;31.68;43.63
41596;BME280;27283;52.504;13.358;2023-08-20T10:11:24;101764.38;;;31.81;42.44
41596;BME280;27283;52.504;13.358;2023-08-20T10:15:16;101755.69;;;30.55;43.61
41596;BME280;27283;52.504;13.358;2023-08-20T10:17:55;101760.44;;;30.65;44.25
41596;BME280;27283;52.504;13.358;2023-08-20T10:21:57;101748.13;;;31.38;42.27
41596;BME280;27283;52.504;13.358;2023-08-20T10:25:30;101741.28;;;30.69;44.54
41596;BME280;27283;52.504;13.358;2023-08-20T10:28:41;101743.06;;;31.66;41.74
41596;BME280;27283;52.504;13.358;2023-08-20T10:32:11;101725.41;;;30.23;42.85
41596;BME280;27283;52.504;13.358;2023-08-20T10:38:55;101730.72;;;30.35;43.77
41596;BME280;27283;52.504;13.358;2023-08-20T10:42:27;101731.47;;;29.99;43.92
41596;BME280;27283;52.504;13.358;2023-08-20T10:46:49;101727.00;;;29.98;43.85
41596;BME280;27283;52.504;13.358;2023-08-20T10:50:29;101724.06;;;30.82;42.26
41596;BME280;27283;52.504;13.358;2023-08-20T10:54:02;101728.13;;;31.41;42.45
41596;BME280;27283;52.504;13.358;2023-08-20T10:58:20;101733.50;;;30.97;42.17
41596;BME280;27283;52.504;13.358;2023-08-20T11:01:57;101730.19;;;31.80;40.25
41596;BME280;27283;52.504;13.358;2023-08-20T11:04:56;101725.97;;;31.93;39.58
41596;BME280;27283;52.504;13.358;2023-08-20T11:08:11;101726.13;;;32.52;38.28
41596;BME280;27283;52.504;13.358;2023-08-20T11:11:20;101734.78;;;31.45;39.94
41596;BME280;27283;52.504;13.358;2023-08-20T11:14:17;101738.78;;;31.89;39.68
41596;BME280;27283;52.504;13.358;2023-08-20T11:18:08;101738.97;;;31.33;39.92
41596;BME280;27283;52.504;13.358;2023-08-20T11:20:58;101738.53;;;30.64;40.73
41596;BME280;27283;52.504;13.358;2023-08-20T11:24:44;101736.81;;;30.68;41.71
41596;BME280;27283;52.504;13.358;2023-08-20T11:28:53;101734.25;;;31.43;40.65
41596;BME280;27283;52.504;13.358;2023-08-20T11:32:10;101734.31;;;31.18;39.61
41596;BME280;27283;52.504;13.358;2023-08-20T11:35:38;101732.69;;;30.65;40.93
41596;BME280;27283;52.504;13.358;2023-08-20T11:38:43;101736.00;;;30.42;41.47
41596;BME280;27283;52.504;13.358;2023-08-20T11:42:50;101730.69;;;30.30;41.69
41596;BME280;27283;52.504;13.358;2023-08-20T11:46:13;101735.19;;;31.03;41.41
41596;BME280;27283;52.504;13.358;2023-08-20T11:49:56;101729.88;;;31.06;41.93
41596;BME280;27283;52.504;13.358;2023-08-20T11:53:41;101721.59;;;30.65;42.60
41596;BME280;27283;52.504;13.358;2023-08-20T12:01:07;101727.94;;;31.07;40.47
41596;BME280;27283;52.504;13.358;2023-08-20T12:04:51;101732.66;;;30.60;42.02
41596;BME280;27283;52.504;13.358;2023-08-20T12:08:36;101723.22;;;30.40;43.35
41596;BME280;27283;52.504;13.358;2023-08-20T12:11:29;101714.94;;;30.56;42.43
41596;BME280;27283;52.504;13.358;2023-08-20T12:14:24;101712.69;;;30.58;42.09
41596;BME280;27283;52.504;13.358;2023-08-20T12:18:25;101714.63;;;30.68;42.66
41596;BME280;27283;52.504;13.358;2023-08-20T12:21:46;101720.66;;;30.13;42.86
41596;BME280;27283;52.504;13.358;2023-08-20T12:25:30;101711.88;;;30.63;40.53
41596;BME280;27283;52.504;13.358;2023-08-20T12:29:12;101716.03;;;30.75;39.85
41596;BME280;27283;52.504;13.358;2023-08-20T12:32:37;101715.13;;;30.03;40.50
41596;BME280;27283;52.504;13.358;2023-08-20T12:35:53;101715.97;;;30.19;40.66
41596;BME280;27283;52.504;13.358;2023-08-20T12:38:27;101705.09;;;29.97;41.33
41596;BME280;27283;52.504;13.358;2023-08-20T12:41:35;101710.81;;;29.64;40.52
41596;BME280;27283;52.504;13.358;2023-08-20T12:44:39;101712.19;;;29.62;41.16
41596;BME280;27283;52.504;13.358;2023-08-20T12:47:43;101717.09;;;30.23;39.45
41596;BME280;27283;52.504;13.358;2023-08-20T12:50:25;101723.44;;;30.08;38.21
41596;BME280;27283;52.504;13.358;2023-08-20T13:01:28;101710.84;;;29.75;40.24
41596;BME280;27283;52.504;13.358;2023-08-20T13:04:47;101708.97;;;29.85;39.55
41596;BME280;27283;52.504;13.358;2023-08-20T13:08:54;101707.56;;;29.83;37.05
41596;BME280;27283;52.504;13.358;2023-08-20T13:12:21;101696.38;;;29.52;36.98
41596;BME280;27283;52.504;13.358;2023-08-20T13:16:15;101706.47;;;29.21;37.79
41596;BME280;27283;52.504;13.358;2023-08-20T13:19:47;101699.19;;;29.73;37.21
41596;BME280;27283;52.504;13.358;2023-08-20T13:23:05;101703.78;;;30.20;36.16
41596;BME280;27283;52.504;13.358;2023-08-20T13:26:12;101711.81;;;30.21;37.87
41596;BME280;27283;52.504;13.358;2023-08-20T13:30:21;101710.38;;;29.98;35.82
41596;BME280;27283;52.504;13.358;2023-08-20T13:34:26;101709.81;;;29.96;34.19
41596;BME280;27283;52.504;13.358;2023-08-20T13:41:51;101697.88;;;29.85;37.31
41596;BME280;27283;52.504;13.358;2023-08-20T13:45:10;101704.94;;;29.50;38.59
41596;BME280;27283;52.504;13.358;2023-08-20T13:48:11;101700.31;;;29.72;37.99
41596;BME280;27283;52.504;13.358;2023-08-20T13:51:48;101709.63;;;29.50;38.34
41596;BME280;27283;52.504;13.358;2023-08-20T13:55:19;101702.34;;;29.92;39.00
41596;BME280;27283;52.504;13.358;2023-08-20T14:02:59;101705.28;;;29.64;42.08
41596;BME280;27283;52.504;13.358;2023-08-20T14:06:19;101707.66;;;29.35;39.44
41596;BME280;27283;52.504;13.358;2023-08-20T14:09:09;101700.25;;;29.56;39.50
41596;BME280;27283;52.504;13.358;2023-08-20T14:21:05;101695.28;;;29.05;36.59
41596;BME280;27283;52.504;13.358;2023-08-20T14:31:41;101693.63;;;28.67;36.13
41596;BME280;27283;52.504;13.358;2023-08-20T14:34:55;101696.47;;;28.82;35.04
41596;BME280;27283;52.504;13.358;2023-08-20T14:38:45;101688.78;;;28.84;33.97
41596;BME280;27283;52.504;13.358;2023-08-20T14:41:32;101687.38;;;28.49;33.15
41596;BME280;27283;52.504;13.358;2023-08-20T14:44:21;101690.16;;;28.49;32.41
41596;BME280;27283;52.504;13.358;2023-08-20T14:46:57;101682.81;;;28.33;33.42
41596;BME280;27283;52.504;13.358;2023-08-20T14:49:29;101688.88;;;28.29;33.14
41596;BME280;27283;52.504;13.358;2023-08-20T14:52:29;101682.66;;;28.50;34.65
41596;BME280;27283;52.504;13.358;2023-08-20T14:55:10;101678.31;;;28.96;34.69
41596;BME280;27283;52.504;13.358;2023-08-20T14:57:43;101681.09;;;29.44;35.19
41596;BME280;27283;52.504;13.358;2023-08-20T15:00:20;101677.28;;;28.65;34.62
41596;BME280;27283;52.504;13.358;2023-08-20T15:02:57;101670.75;;;28.81;34.34
41596;BME280;27283;52.504;13.358;2023-08-20T15:05:29;101678.13;;;29.13;34.73